createdAt,value
2018-03-06T00:01:46.862Z,28.97
2018-03-06T00:04:17.683Z,27.87
2018-03-06T00:06:48.524Z,29.10
2018-03-06T00:09:19.356Z,29.63
2018-03-06T00:11:50.193Z,26.33
2018-03-06T00:14:21.065Z,27.43
2018-03-06T00:16:51.895Z,28.60
2018-03-06T00:19:22.689Z,28.37
2018-03-06T00:21:53.510Z,30.40
2018-03-06T00:24:24.347Z,28.33
2018-03-06T00:26:55.169Z,27.63
2018-03-06T00:29:26.007Z,28.83
2018-03-06T00:31:56.815Z,27.90
2018-03-06T00:34:27.689Z,29.50
2018-03-06T00:36:58.508Z,27.90
2018-03-06T00:39:29.325Z,28.63
2018-03-06T00:42:00.129Z,29.43
2018-03-06T00:44:30.960Z,28.70
2018-03-06T00:47:02.560Z,28.10
2018-03-06T00:49:33.434Z,30.15
2018-03-06T00:52:04.256Z,28.00
2018-03-06T00:54:35.070Z,27.70
2018-03-06T00:57:05.860Z,26.97
2018-03-06T00:59:36.710Z,29.67
2018-03-06T01:02:07.529Z,26.57
2018-03-06T01:04:38.344Z,28.90
2018-03-06T01:07:09.137Z,29.80
2018-03-06T01:09:39.953Z,29.80
2018-03-06T01:12:10.776Z,29.97
2018-03-06T01:14:41.574Z,29.33
2018-03-06T01:17:12.366Z,30.80
2018-03-06T01:19:43.183Z,30.10
2018-03-06T01:22:13.990Z,30.00
2018-03-06T01:24:44.857Z,29.87
2018-03-06T01:27:15.679Z,29.77
2018-03-06T01:29:46.538Z,27.77
2018-03-06T01:32:17.365Z,28.70
2018-03-06T01:34:48.206Z,30.40
2018-03-06T01:37:19.025Z,28.50
2018-03-06T01:39:49.897Z,31.80
2018-03-06T01:42:20.743Z,26.37
2018-03-06T01:44:51.625Z,29.00
2018-03-06T01:47:22.492Z,29.03
2018-03-06T01:49:53.326Z,27.90
2018-03-06T01:52:24.160Z,28.20
2018-03-06T01:54:54.997Z,26.93
2018-03-06T01:57:25.793Z,27.83
2018-03-06T01:59:56.700Z,26.27
2018-03-06T02:02:27.514Z,29.07
2018-03-06T02:04:58.578Z,28.00
2018-03-06T02:07:29.398Z,27.27
2018-03-06T02:10:00.262Z,28.30
2018-03-06T02:12:31.107Z,26.23
2018-03-06T02:15:01.943Z,28.10
2018-03-06T02:17:32.789Z,29.43
2018-03-06T02:20:03.629Z,27.20
2018-03-06T02:22:34.488Z,27.80
2018-03-06T02:25:05.302Z,28.20
2018-03-06T02:27:36.115Z,29.00
2018-03-06T02:30:07.778Z,27.02
2018-03-06T02:32:38.580Z,28.27
2018-03-06T02:35:09.415Z,28.27
2018-03-06T02:37:40.207Z,26.97
2018-03-06T02:40:11.057Z,29.27
2018-03-06T02:42:41.911Z,29.50
2018-03-06T02:45:12.749Z,30.20
2018-03-06T02:47:43.587Z,28.33
2018-03-06T02:50:14.403Z,28.87
2018-03-06T02:52:45.218Z,30.53
2018-03-06T02:55:16.039Z,28.37
2018-03-06T02:57:46.886Z,27.80
2018-03-06T03:00:17.812Z,27.80
2018-03-06T03:02:48.645Z,27.73
2018-03-06T03:05:19.588Z,27.77
2018-03-06T03:07:50.485Z,28.35
2018-03-06T03:10:21.412Z,24.43
2018-03-06T03:12:52.263Z,27.17
2018-03-06T03:15:23.160Z,29.90
2018-03-06T03:17:54.038Z,27.40
2018-03-06T03:20:24.973Z,26.23
2018-03-06T03:22:56.858Z,28.33
2018-03-06T03:25:27.767Z,26.15
2018-03-06T03:27:58.705Z,27.50
2018-03-06T03:30:29.673Z,28.30
2018-03-06T03:33:00.519Z,28.80
2018-03-06T03:35:31.407Z,27.60
2018-03-06T03:38:02.269Z,28.63
2018-03-06T03:40:33.136Z,31.00
2018-03-06T03:43:04.037Z,27.00
2018-03-06T03:45:34.870Z,28.17
2018-03-06T03:48:05.723Z,28.20
2018-03-06T03:50:36.678Z,31.17
2018-03-06T03:53:07.566Z,27.87
2018-03-06T03:55:38.498Z,27.77
2018-03-06T03:58:09.335Z,27.27
2018-03-06T04:00:40.187Z,28.27
2018-03-06T04:03:11.047Z,25.90
2018-03-06T04:05:41.910Z,27.93
2018-03-06T04:08:12.783Z,27.50
2018-03-06T04:10:43.654Z,27.20
2018-03-06T04:13:14.583Z,26.97
2018-03-06T04:15:45.466Z,30.60
2018-03-06T04:18:16.328Z,26.63
2018-03-06T04:20:47.165Z,27.97
2018-03-06T04:23:18.043Z,25.20
2018-03-06T04:25:49.020Z,30.17
2018-03-06T04:28:20.802Z,28.80
2018-03-06T04:30:51.774Z,25.73
2018-03-06T04:33:22.664Z,25.90
2018-03-06T04:35:53.631Z,29.03
2018-03-06T04:38:24.486Z,28.70
2018-03-06T04:40:55.424Z,27.67
2018-03-06T04:43:26.290Z,28.13
2018-03-06T04:45:57.175Z,28.43
2018-03-06T04:48:28.038Z,27.43
2018-03-06T04:50:59.896Z,28.33
2018-03-06T04:53:30.735Z,28.27
2018-03-06T04:56:01.647Z,27.20
2018-03-06T04:58:32.618Z,29.80
2018-03-06T05:01:04.503Z,25.58
2018-03-06T05:03:35.397Z,28.90
2018-03-06T05:06:06.327Z,30.00
2018-03-06T05:08:37.194Z,29.30
2018-03-06T05:11:08.027Z,28.13
2018-03-06T05:13:38.856Z,27.90
2018-03-06T05:16:09.809Z,29.60
2018-03-06T05:18:40.755Z,29.20
2018-03-06T05:21:11.646Z,28.87
2018-03-06T05:23:42.481Z,29.20
2018-03-06T05:26:13.388Z,27.03
2018-03-06T05:28:44.246Z,27.37
2018-03-06T05:31:15.105Z,28.90
2018-03-06T05:33:45.938Z,26.30
2018-03-06T05:36:16.824Z,25.83
2018-03-06T05:38:47.659Z,27.80
2018-03-06T05:41:18.525Z,25.83
2018-03-06T05:43:49.349Z,27.93
2018-03-06T05:46:20.249Z,28.40
2018-03-06T05:48:51.083Z,25.67
2018-03-06T05:51:21.912Z,28.57
2018-03-06T05:53:52.822Z,28.50
2018-03-06T05:56:23.711Z,27.23
2018-03-06T05:58:54.542Z,27.03
2018-03-06T06:01:25.380Z,27.50
2018-03-06T06:03:56.227Z,30.50
2018-03-06T06:06:27.101Z,30.27
2018-03-06T06:08:57.922Z,29.37
2018-03-06T06:11:29.566Z,27.97
2018-03-06T06:14:00.466Z,26.40
2018-03-06T06:16:31.343Z,28.17
2018-03-06T06:19:02.140Z,30.53
2018-03-06T06:21:32.980Z,26.23
2018-03-06T06:24:03.841Z,28.93
2018-03-06T06:26:34.675Z,29.70
2018-03-06T06:29:05.528Z,27.60
2018-03-06T06:31:36.342Z,27.60
2018-03-06T06:34:07.218Z,28.00
2018-03-06T06:36:38.023Z,28.90
2018-03-06T06:39:08.921Z,27.90
2018-03-06T06:41:39.838Z,26.37
2018-03-06T06:44:10.639Z,29.33
2018-03-06T06:46:41.466Z,26.50
2018-03-06T06:49:12.316Z,28.70
2018-03-06T06:51:43.134Z,29.10
2018-03-06T06:54:13.949Z,28.23
2018-03-06T06:56:44.756Z,27.03
2018-03-06T06:59:15.548Z,27.83
2018-03-06T07:01:46.340Z,28.03
2018-03-06T07:04:17.109Z,27.60
2018-03-06T07:06:47.948Z,24.70
2018-03-06T07:09:18.750Z,25.43
2018-03-06T07:11:49.559Z,28.57
2018-03-06T07:14:20.358Z,28.47
2018-03-06T07:16:51.201Z,26.20
2018-03-06T07:19:22.041Z,27.60
2018-03-06T07:21:52.845Z,26.60
2018-03-06T07:24:23.653Z,27.17
2018-03-06T07:26:54.486Z,26.40
2018-03-06T07:29:25.252Z,25.03
2018-03-06T07:31:56.049Z,25.37
2018-03-06T07:34:26.837Z,28.07
2018-03-06T07:36:57.689Z,25.87
2018-03-06T07:39:28.464Z,23.50
2018-03-06T07:41:59.281Z,25.60
2018-03-06T07:44:30.098Z,25.80
2018-03-06T07:47:01.041Z,26.80
2018-03-06T07:49:31.877Z,27.27
2018-03-06T07:52:03.656Z,25.97
2018-03-06T07:54:34.522Z,26.37
2018-03-06T07:57:05.390Z,24.87
2018-03-06T07:59:36.201Z,26.20
2018-03-06T08:02:07.054Z,25.37
2018-03-06T08:04:37.856Z,26.53
2018-03-06T08:07:08.677Z,25.00
2018-03-06T08:09:39.534Z,25.03
2018-03-06T08:12:10.347Z,27.43
2018-03-06T08:14:41.155Z,27.00
2018-03-06T08:17:11.974Z,26.57
2018-03-06T08:19:42.809Z,27.43
2018-03-06T08:22:13.646Z,25.80
2018-03-06T08:24:44.499Z,28.50
2018-03-06T08:27:15.342Z,25.93
2018-03-06T08:29:46.191Z,25.20
2018-03-06T08:32:17.023Z,25.30
2018-03-06T08:34:47.848Z,26.90
2018-03-06T08:37:18.718Z,25.30
2018-03-06T08:39:49.557Z,25.33
2018-03-06T08:42:23.501Z,26.80
2018-03-06T08:44:54.332Z,26.95
2018-03-06T08:47:25.188Z,27.70
2018-03-06T08:49:55.967Z,26.30
2018-03-06T08:52:28.897Z,27.10
2018-03-06T08:54:59.691Z,27.58
2018-03-06T08:57:31.548Z,26.80
2018-03-06T09:00:02.441Z,26.98
2018-03-06T09:02:33.308Z,24.67
2018-03-06T09:05:04.113Z,25.50
2018-03-06T09:07:34.957Z,27.70
2018-03-06T09:10:05.834Z,26.93
2018-03-06T09:12:36.693Z,28.80
2018-03-06T09:15:07.598Z,27.40
2018-03-06T09:17:38.473Z,26.00
2018-03-06T09:20:09.309Z,26.73
2018-03-06T09:22:40.138Z,26.73
2018-03-06T09:25:10.958Z,26.70
2018-03-06T09:27:41.741Z,26.03
2018-03-06T09:30:12.570Z,26.70
2018-03-06T09:32:43.366Z,25.40
2018-03-06T09:35:14.162Z,25.60
2018-03-06T09:37:44.959Z,25.43
2018-03-06T09:40:15.885Z,27.60
2018-03-06T09:42:46.699Z,25.93
2018-03-06T09:45:17.525Z,25.90
2018-03-06T09:47:48.361Z,27.13
2018-03-06T09:50:19.223Z,27.97
2018-03-06T09:52:51.026Z,26.07
2018-03-06T09:55:21.850Z,27.23
2018-03-06T09:57:52.661Z,26.20
2018-03-06T10:00:23.467Z,24.80
2018-03-06T10:02:55.306Z,26.87
2018-03-06T10:05:26.133Z,26.35
2018-03-06T10:07:56.956Z,27.40
2018-03-06T10:10:27.796Z,26.00
2018-03-06T10:12:58.635Z,28.27
2018-03-06T10:15:29.473Z,26.07
2018-03-06T10:18:00.281Z,26.23
2018-03-06T10:20:31.093Z,25.20
2018-03-06T10:23:01.905Z,25.17
2018-03-06T10:25:33.446Z,26.53
2018-03-06T10:28:04.290Z,25.10
2018-03-06T10:30:35.090Z,30.10
2018-03-06T10:33:05.899Z,27.90
2018-03-06T10:35:36.732Z,25.07
2018-03-06T10:38:07.583Z,24.97
2018-03-06T10:40:39.035Z,26.93
2018-03-06T10:43:09.857Z,26.45
2018-03-06T10:45:40.672Z,27.47
2018-03-06T10:48:11.470Z,27.70
2018-03-06T10:50:42.310Z,25.33
2018-03-06T10:53:13.168Z,26.70
2018-03-06T10:55:43.990Z,25.20
2018-03-06T10:58:14.790Z,26.73
2018-03-06T11:00:46.566Z,25.50
2018-03-06T11:03:22.368Z,26.42
2018-03-06T11:05:53.199Z,26.95
2018-03-06T11:08:24.006Z,25.03
2018-03-06T11:10:54.834Z,25.60
2018-03-06T11:13:25.632Z,27.37
2018-03-06T11:15:56.478Z,25.83
2018-03-06T11:18:27.338Z,26.73
2018-03-06T11:20:58.230Z,26.90
2018-03-06T11:23:29.126Z,25.77
2018-03-06T11:25:59.948Z,25.40
2018-03-06T11:28:30.730Z,27.03
2018-03-06T11:31:01.610Z,26.70
2018-03-06T11:33:32.405Z,24.80
2018-03-06T11:36:03.364Z,23.87
2018-03-06T11:38:34.226Z,27.17
2018-03-06T11:41:06.097Z,26.47
2018-03-06T11:43:36.905Z,28.00
2018-03-06T11:46:07.726Z,26.30
2018-03-06T11:48:38.534Z,27.17
2018-03-06T11:51:09.326Z,27.93
2018-03-06T11:53:40.186Z,25.30
2018-03-06T11:56:11.046Z,25.10
2018-03-06T11:58:41.849Z,24.03
2018-03-06T12:01:13.736Z,25.23
2018-03-06T12:03:45.654Z,25.57
2018-03-06T12:06:16.509Z,24.58
2018-03-06T12:08:47.371Z,23.70
2018-03-06T12:11:18.421Z,25.80
2018-03-06T12:13:49.235Z,25.12
2018-03-06T12:16:20.134Z,23.80
2018-03-06T12:18:50.929Z,24.60
2018-03-06T12:21:21.805Z,27.10
2018-03-06T12:23:52.621Z,25.00
2018-03-06T12:26:23.464Z,23.40
2018-03-06T12:28:54.269Z,23.93
2018-03-06T12:31:25.082Z,25.50
2018-03-06T12:33:55.873Z,23.07
2018-03-06T12:36:26.710Z,23.50
2018-03-06T12:38:57.526Z,23.07
2018-03-06T12:41:28.406Z,23.70
2018-03-06T12:43:59.198Z,23.10
2018-03-06T12:46:29.998Z,24.43
2018-03-06T12:49:00.792Z,23.83
2018-03-06T12:51:31.601Z,24.33
2018-03-06T12:54:02.423Z,24.50
2018-03-06T12:56:33.241Z,23.37
2018-03-06T12:59:04.055Z,21.60
2018-03-06T13:01:34.911Z,21.37
2018-03-06T13:04:05.725Z,22.13
2018-03-06T13:06:37.590Z,21.80
2018-03-06T13:09:08.413Z,21.23
2018-03-06T13:11:39.300Z,24.63
2018-03-06T13:14:10.135Z,23.07
2018-03-06T13:16:41.040Z,22.20
2018-03-06T13:19:11.867Z,24.50
2018-03-06T13:21:42.878Z,24.10
2018-03-06T13:24:14.313Z,25.67
2018-03-06T13:26:45.153Z,23.85
2018-03-06T13:29:15.957Z,25.17
2018-03-06T13:31:46.783Z,24.80
2018-03-06T13:34:17.706Z,23.70
2018-03-06T13:36:48.641Z,24.67
2018-03-06T13:39:19.453Z,24.57
2018-03-06T13:41:50.268Z,23.07
2018-03-06T13:44:21.097Z,23.10
2018-03-06T13:46:51.937Z,23.50
2018-03-06T13:49:22.750Z,23.30
2018-03-06T13:51:53.586Z,23.77
2018-03-06T13:54:24.416Z,23.63
2018-03-06T13:56:55.273Z,24.03
2018-03-06T13:59:26.113Z,24.60
2018-03-06T14:02:00.551Z,25.73
2018-03-06T14:04:31.351Z,24.58
2018-03-06T14:07:02.171Z,24.87
2018-03-06T14:09:32.949Z,26.07
2018-03-06T14:12:03.835Z,26.30
2018-03-06T14:14:35.754Z,26.53
2018-03-06T14:17:06.594Z,27.08
2018-03-06T14:19:37.407Z,27.97
2018-03-06T14:22:08.250Z,28.43
2018-03-06T14:24:39.032Z,26.17
2018-03-06T14:27:10.888Z,28.70
2018-03-06T14:29:41.688Z,27.55
2018-03-06T14:32:12.572Z,27.67
2018-03-06T14:34:43.401Z,35.53
2018-03-06T14:37:14.248Z,28.20
2018-03-06T14:39:45.089Z,27.10
2018-03-06T14:42:15.926Z,27.27
2018-03-06T14:44:46.741Z,27.10
2018-03-06T14:47:17.626Z,30.30
2018-03-06T14:49:48.460Z,29.70
2018-03-06T14:52:19.317Z,27.20
2018-03-06T14:54:51.166Z,28.37
2018-03-06T14:57:22.141Z,29.23
2018-03-06T14:59:52.950Z,29.20
2018-03-06T15:02:23.869Z,27.90
2018-03-06T15:04:54.726Z,28.00
2018-03-06T15:07:25.627Z,28.40
2018-03-06T15:09:57.517Z,29.00
2018-03-06T15:12:28.433Z,27.37
2018-03-06T15:14:59.373Z,28.30
2018-03-06T15:17:30.328Z,27.27
2018-03-06T15:20:01.187Z,28.57
2018-03-06T15:22:32.106Z,28.90
2018-03-06T15:25:02.959Z,27.53
2018-03-06T15:27:33.906Z,28.80
2018-03-06T15:30:04.818Z,27.43
2018-03-06T15:32:35.654Z,28.77
2018-03-06T15:35:06.494Z,29.10
2018-03-06T15:37:37.321Z,31.30
2018-03-06T15:40:08.113Z,28.50
2018-03-06T15:42:39.961Z,29.13
2018-03-06T15:45:11.835Z,28.15
2018-03-06T15:47:42.751Z,31.27
2018-03-06T15:50:13.557Z,27.00
2018-03-06T15:52:44.406Z,29.17
2018-03-06T15:55:15.261Z,25.47
2018-03-06T15:57:46.137Z,28.53
2018-03-06T16:00:16.936Z,29.17
2018-03-06T16:02:47.756Z,29.40
2018-03-06T16:05:18.597Z,29.53
2018-03-06T16:07:49.468Z,31.00
2018-03-06T16:10:20.382Z,30.17
2018-03-06T16:12:51.298Z,30.20
2018-03-06T16:15:23.032Z,30.70
2018-03-06T16:17:53.858Z,30.70
2018-03-06T16:20:24.775Z,28.70
2018-03-06T16:22:55.629Z,28.87
2018-03-06T16:25:26.471Z,30.60
2018-03-06T16:27:57.304Z,32.43
2018-03-06T16:30:29.188Z,33.00
2018-03-06T16:33:00.020Z,35.55
2018-03-06T16:35:30.821Z,32.97
2018-03-06T16:38:01.660Z,34.97
2018-03-06T16:40:32.501Z,34.27
2018-03-06T16:43:03.365Z,33.33
2018-03-06T16:45:36.186Z,34.30
2018-03-06T16:48:07.052Z,35.38
2018-03-06T16:50:37.890Z,36.23
2018-03-06T16:53:08.726Z,38.17
2018-03-06T16:55:39.527Z,37.27
2018-03-06T16:58:10.410Z,35.50
2018-03-06T17:00:41.207Z,37.83
2018-03-06T17:03:12.030Z,36.17
2018-03-06T17:05:42.802Z,40.20
2018-03-06T17:08:13.751Z,32.20
2018-03-06T17:10:44.557Z,37.40
2018-03-06T17:13:15.399Z,38.90
2018-03-06T17:15:46.205Z,38.20
2018-03-06T17:18:17.038Z,38.00
2018-03-06T17:20:47.825Z,36.27
2018-03-06T17:23:18.699Z,35.87
2018-03-06T17:25:49.510Z,33.70
2018-03-06T17:28:20.322Z,35.90
2018-03-06T17:30:51.143Z,39.50
2018-03-06T17:33:21.943Z,36.73
2018-03-06T17:35:52.744Z,37.50
2018-03-06T17:38:23.526Z,34.47
2018-03-06T17:40:54.344Z,37.53
2018-03-06T17:43:25.162Z,35.87
2018-03-06T17:45:55.951Z,36.00
2018-03-06T17:48:26.795Z,36.37
2018-03-06T17:50:57.594Z,34.20
2018-03-06T17:53:28.410Z,37.13
2018-03-06T17:55:59.260Z,35.67
2018-03-06T17:58:30.102Z,35.10
2018-03-06T18:01:00.933Z,34.20
2018-03-06T18:03:31.863Z,35.90
2018-03-06T18:06:02.717Z,35.63
2018-03-06T18:08:33.558Z,40.00
2018-03-06T18:11:04.402Z,37.40
2018-03-06T18:13:35.232Z,36.20
2018-03-06T18:16:06.038Z,34.83
2018-03-06T18:18:36.893Z,36.30
2018-03-06T18:21:07.747Z,36.10
2018-03-06T18:23:38.584Z,37.00
2018-03-06T18:26:09.423Z,38.13
2018-03-06T18:28:40.258Z,34.97
2018-03-06T18:31:11.078Z,37.40
2018-03-06T18:33:42.946Z,37.00
2018-03-06T18:36:13.741Z,35.35
2018-03-06T18:38:44.562Z,35.20
2018-03-06T18:41:15.402Z,36.03
2018-03-06T18:43:46.283Z,36.97
2018-03-06T18:46:17.115Z,34.20
2018-03-06T18:48:47.950Z,34.80
2018-03-06T18:51:18.822Z,36.37
2018-03-06T18:53:50.656Z,34.17
2018-03-06T18:56:21.525Z,37.75
2018-03-06T18:58:52.389Z,36.13
2018-03-06T19:04:52.257Z,38.58
2018-03-06T19:07:24.169Z,40.00
2018-03-06T19:09:56.018Z,39.78
2018-03-06T19:12:27.865Z,53.92
2018-03-06T19:14:58.686Z,42.60
2018-03-06T19:17:29.498Z,43.00
2018-03-06T19:20:00.358Z,46.40
2018-03-06T19:22:31.197Z,42.03
2018-03-06T19:25:02.055Z,46.30
2018-03-06T19:27:32.862Z,42.63
2018-03-06T19:30:03.703Z,40.70
2018-03-06T19:32:34.534Z,40.07
2018-03-06T19:35:05.385Z,38.77
2018-03-06T19:37:37.314Z,44.90
2018-03-06T19:40:08.167Z,42.05
2018-03-06T19:42:39.077Z,44.30
2018-03-06T19:45:10.994Z,43.57
2018-03-06T19:47:41.863Z,41.60
2018-03-06T19:50:12.721Z,44.37
2018-03-06T19:52:43.525Z,40.50
2018-03-06T19:55:14.395Z,42.23
2018-03-06T19:57:46.034Z,40.77
2018-03-06T20:00:17.914Z,44.45
2018-03-06T20:02:48.773Z,41.83
2018-03-06T20:05:19.690Z,48.17
2018-03-06T20:07:50.553Z,42.93
2018-03-06T20:10:21.402Z,42.20
2018-03-06T20:12:52.221Z,44.70
2018-03-06T20:15:23.061Z,43.97
2018-03-06T20:17:53.933Z,48.80
2018-03-06T20:20:24.882Z,46.67
2018-03-06T20:22:55.773Z,44.75
2018-03-06T20:25:32.710Z,43.10
2018-03-06T20:28:03.528Z,44.22
2018-03-06T20:30:41.495Z,41.40
2018-03-06T20:33:15.292Z,41.13
2018-03-06T20:35:46.136Z,43.47
2018-03-06T20:38:23.110Z,44.57
2018-03-06T20:40:53.990Z,40.58
2018-03-06T20:43:24.807Z,41.90
2018-03-06T20:46:01.967Z,41.20
2018-03-06T20:48:39.793Z,40.42
2018-03-06T20:51:10.768Z,42.53
2018-03-06T20:53:47.679Z,40.83
2018-03-06T20:56:19.583Z,40.63
2018-03-06T20:58:50.463Z,44.47
2018-03-06T21:01:21.321Z,46.53
2018-03-06T21:03:52.136Z,44.57
2018-03-06T21:06:22.973Z,45.60
2018-03-06T21:08:53.739Z,42.23
2018-03-06T21:11:25.502Z,43.10
2018-03-06T21:13:56.407Z,43.75
2018-03-06T21:16:27.217Z,42.90
2018-03-06T21:18:58.036Z,47.70
2018-03-06T21:21:28.971Z,41.23
2018-03-06T21:23:59.869Z,46.10
2018-03-06T21:26:30.722Z,45.60
2018-03-06T21:29:01.555Z,44.27
2018-03-06T21:31:32.424Z,45.57
2018-03-06T21:34:03.253Z,43.00
2018-03-06T21:36:34.190Z,41.47
2018-03-06T21:39:05.078Z,45.47
2018-03-06T21:41:35.902Z,45.30
2018-03-06T21:44:06.775Z,42.80
2018-03-06T21:46:37.647Z,42.80
2018-03-06T21:49:08.473Z,45.20
2018-03-06T21:51:39.319Z,42.67
2018-03-06T21:54:10.346Z,43.87
2018-03-06T21:56:41.194Z,45.20
2018-03-06T21:59:12.024Z,46.80
2018-03-06T22:01:42.855Z,42.93
2018-03-06T22:04:13.669Z,42.10
2018-03-06T22:06:44.542Z,43.97
2018-03-06T22:09:15.340Z,44.97
2018-03-06T22:11:46.150Z,42.67
2018-03-06T22:14:16.994Z,41.27
2018-03-06T22:16:47.845Z,39.60
2018-03-06T22:19:18.728Z,47.60
2018-03-06T22:21:49.545Z,53.00
2018-03-06T22:24:20.379Z,48.73
2018-03-06T22:26:51.192Z,49.97
2018-03-06T22:29:22.103Z,46.27
2018-03-06T22:31:52.968Z,47.03
2018-03-06T22:34:23.875Z,48.27
2018-03-06T22:36:54.717Z,45.97
2018-03-06T22:39:25.612Z,46.57
2018-03-06T22:41:56.440Z,43.00
2018-03-06T22:44:27.255Z,46.43
2018-03-06T22:46:58.072Z,42.73
2018-03-06T22:49:28.913Z,44.30
2018-03-06T22:51:59.722Z,44.13
2018-03-06T22:54:30.559Z,41.87
2018-03-06T22:57:01.449Z,42.63
2018-03-06T22:59:32.296Z,45.47
2018-03-06T23:02:03.133Z,44.13
2018-03-06T23:04:34.009Z,46.67
2018-03-06T23:07:04.806Z,43.43
2018-03-06T23:09:35.651Z,43.00
2018-03-06T23:12:06.501Z,45.07
2018-03-06T23:14:37.326Z,47.83
2018-03-06T23:17:08.315Z,41.80
2018-03-06T23:19:39.153Z,44.90
2018-03-06T23:22:09.983Z,42.40
2018-03-06T23:24:40.917Z,42.50
2018-03-06T23:27:11.740Z,45.73
2018-03-06T23:29:43.624Z,46.13
2018-03-06T23:32:14.420Z,42.72
2018-03-06T23:34:45.289Z,48.80
2018-03-06T23:37:16.108Z,42.10
2018-03-06T23:39:46.945Z,43.67
2018-03-06T23:42:17.781Z,44.17
2018-03-06T23:44:48.673Z,47.40
2018-03-06T23:47:19.493Z,41.60
2018-03-06T23:49:50.361Z,44.93
2018-03-06T23:52:21.174Z,47.07
2018-03-06T23:54:51.974Z,43.20
2018-03-06T23:57:22.799Z,44.27
2018-03-06T23:59:53.646Z,47.73
